sensor_id;sensor_type;location;lat;lon;timestamp;P1;durP1;ratioP1;P2;durP2;ratioP2
70153;SDS011;57519;51.494;-2.626;2022-07-06T00:02:21;282.30;;;157.97;;
70153;SDS011;57519;51.494;-2.626;2022-07-06T00:04:47;290.13;;;159.13;;
70153;SDS011;57519;51.494;-2.626;2022-07-06T00:07:12;276.77;;;154.50;;
70153;SDS011;57519;51.494;-2.626;2022-07-06T00:09:39;286.98;;;160.13;;
70153;SDS011;57519;51.494;-2.626;2022-07-06T00:12:05;276.58;;;155.10;;
70153;SDS011;57519;51.494;-2.626;2022-07-06T00:14:31;282.77;;;158.67;;
70153;SDS011;57519;51.494;-2.626;2022-07-06T00:16:56;281.00;;;158.07;;
70153;SDS011;57519;51.494;-2.626;2022-07-06T00:19:22;280.87;;;158.43;;
70153;SDS011;57519;51.494;-2.626;2022-07-06T00:21:47;281.10;;;156.53;;
70153;SDS011;57519;51.494;-2.626;2022-07-06T00:24:13;274.17;;;155.20;;
70153;SDS011;57519;51.494;-2.626;2022-07-06T00:26:38;275.58;;;155.07;;
70153;SDS011;57519;51.494;-2.626;2022-07-06T00:29:04;277.00;;;156.07;;
70153;SDS011;57519;51.494;-2.626;2022-07-06T00:31:29;270.00;;;152.43;;
70153;SDS011;57519;51.494;-2.626;2022-07-06T00:33:55;282.15;;;158.63;;
70153;SDS011;57519;51.494;-2.626;2022-07-06T00:36:20;276.03;;;155.40;;
70153;SDS011;57519;51.494;-2.626;2022-07-06T00:38:46;276.00;;;155.80;;
70153;SDS011;57519;51.494;-2.626;2022-07-06T00:41:12;269.93;;;153.20;;
70153;SDS011;57519;51.494;-2.626;2022-07-06T00:43:54;271.55;;;152.93;;
70153;SDS011;57519;51.494;-2.626;2022-07-06T00:46:22;277.10;;;155.85;;
70153;SDS011;57519;51.494;-2.626;2022-07-06T00:48:56;259.52;;;147.85;;
70153;SDS011;57519;51.494;-2.626;2022-07-06T00:51:22;255.52;;;147.50;;
70153;SDS011;57519;51.494;-2.626;2022-07-06T00:54:02;256.77;;;148.47;;
70153;SDS011;57519;51.494;-2.626;2022-07-06T00:56:29;274.42;;;155.32;;
70153;SDS011;57519;51.494;-2.626;2022-07-06T00:58:56;265.13;;;151.80;;
70153;SDS011;57519;51.494;-2.626;2022-07-06T01:01:22;278.05;;;158.18;;
70153;SDS011;57519;51.494;-2.626;2022-07-06T01:03:48;274.47;;;154.97;;
70153;SDS011;57519;51.494;-2.626;2022-07-06T01:06:13;277.27;;;157.10;;
70153;SDS011;57519;51.494;-2.626;2022-07-06T01:08:39;273.10;;;155.23;;
70153;SDS011;57519;51.494;-2.626;2022-07-06T01:11:05;283.27;;;159.30;;
70153;SDS011;57519;51.494;-2.626;2022-07-06T01:13:31;274.65;;;154.82;;
70153;SDS011;57519;51.494;-2.626;2022-07-06T01:15:58;277.23;;;157.52;;
70153;SDS011;57519;51.494;-2.626;2022-07-06T01:18:24;271.67;;;154.00;;
70153;SDS011;57519;51.494;-2.626;2022-07-06T01:20:50;268.27;;;153.35;;
70153;SDS011;57519;51.494;-2.626;2022-07-06T01:23:15;271.63;;;153.73;;
70153;SDS011;57519;51.494;-2.626;2022-07-06T01:25:40;273.80;;;156.20;;
70153;SDS011;57519;51.494;-2.626;2022-07-06T01:28:06;271.42;;;154.35;;
70153;SDS011;57519;51.494;-2.626;2022-07-06T01:30:31;273.70;;;154.20;;
70153;SDS011;57519;51.494;-2.626;2022-07-06T01:32:58;277.38;;;157.65;;
70153;SDS011;57519;51.494;-2.626;2022-07-06T01:35:23;277.83;;;155.70;;
70153;SDS011;57519;51.494;-2.626;2022-07-06T01:37:49;265.95;;;152.65;;
70153;SDS011;57519;51.494;-2.626;2022-07-06T01:40:15;267.20;;;153.50;;
70153;SDS011;57519;51.494;-2.626;2022-07-06T01:42:40;264.67;;;151.70;;
70153;SDS011;57519;51.494;-2.626;2022-07-06T01:45:06;262.25;;;149.52;;
70153;SDS011;57519;51.494;-2.626;2022-07-06T01:47:32;263.88;;;151.13;;
70153;SDS011;57519;51.494;-2.626;2022-07-06T01:49:58;266.03;;;151.27;;
70153;SDS011;57519;51.494;-2.626;2022-07-06T01:52:25;262.42;;;151.35;;
70153;SDS011;57519;51.494;-2.626;2022-07-06T01:54:51;263.42;;;151.07;;
70153;SDS011;57519;51.494;-2.626;2022-07-06T01:57:16;256.90;;;148.87;;
70153;SDS011;57519;51.494;-2.626;2022-07-06T01:59:41;261.30;;;150.70;;
70153;SDS011;57519;51.494;-2.626;2022-07-06T02:02:07;252.33;;;146.87;;
70153;SDS011;57519;51.494;-2.626;2022-07-06T02:04:32;254.60;;;147.87;;
70153;SDS011;57519;51.494;-2.626;2022-07-06T02:06:58;260.93;;;150.57;;
70153;SDS011;57519;51.494;-2.626;2022-07-06T02:09:23;260.10;;;149.43;;
70153;SDS011;57519;51.494;-2.626;2022-07-06T02:11:48;259.27;;;149.30;;
70153;SDS011;57519;51.494;-2.626;2022-07-06T02:14:14;255.87;;;146.57;;
70153;SDS011;57519;51.494;-2.626;2022-07-06T02:16:39;253.13;;;146.45;;
70153;SDS011;57519;51.494;-2.626;2022-07-06T02:19:05;252.70;;;146.30;;
70153;SDS011;57519;51.494;-2.626;2022-07-06T02:21:30;254.20;;;145.37;;
70153;SDS011;57519;51.494;-2.626;2022-07-06T02:23:56;248.20;;;144.23;;
70153;SDS011;57519;51.494;-2.626;2022-07-06T02:26:21;248.02;;;144.45;;
70153;SDS011;57519;51.494;-2.626;2022-07-06T02:28:46;248.40;;;144.40;;
70153;SDS011;57519;51.494;-2.626;2022-07-06T02:31:13;252.90;;;144.53;;
70153;SDS011;57519;51.494;-2.626;2022-07-06T02:33:39;246.18;;;143.75;;
70153;SDS011;57519;51.494;-2.626;2022-07-06T02:36:05;247.32;;;143.25;;
70153;SDS011;57519;51.494;-2.626;2022-07-06T02:38:31;246.10;;;143.67;;
70153;SDS011;57519;51.494;-2.626;2022-07-06T02:40:56;248.80;;;144.33;;
70153;SDS011;57519;51.494;-2.626;2022-07-06T02:43:22;248.85;;;144.20;;
70153;SDS011;57519;51.494;-2.626;2022-07-06T02:45:47;245.23;;;143.23;;
70153;SDS011;57519;51.494;-2.626;2022-07-06T02:48:12;236.83;;;139.73;;
70153;SDS011;57519;51.494;-2.626;2022-07-06T02:50:38;235.07;;;138.97;;
70153;SDS011;57519;51.494;-2.626;2022-07-06T02:53:03;233.43;;;138.18;;
70153;SDS011;57519;51.494;-2.626;2022-07-06T02:55:29;238.37;;;139.40;;
70153;SDS011;57519;51.494;-2.626;2022-07-06T02:57:54;235.73;;;138.10;;
70153;SDS011;57519;51.494;-2.626;2022-07-06T03:00:23;234.53;;;138.20;;
70153;SDS011;57519;51.494;-2.626;2022-07-06T03:02:48;235.95;;;139.45;;
70153;SDS011;57519;51.494;-2.626;2022-07-06T03:05:14;236.30;;;138.27;;
70153;SDS011;57519;51.494;-2.626;2022-07-06T03:07:39;231.48;;;136.77;;
70153;SDS011;57519;51.494;-2.626;2022-07-06T03:10:05;233.27;;;138.23;;
70153;SDS011;57519;51.494;-2.626;2022-07-06T03:12:30;232.23;;;137.20;;
70153;SDS011;57519;51.494;-2.626;2022-07-06T03:14:56;231.88;;;137.23;;
70153;SDS011;57519;51.494;-2.626;2022-07-06T03:17:21;236.80;;;138.63;;
70153;SDS011;57519;51.494;-2.626;2022-07-06T03:19:46;232.20;;;137.23;;
70153;SDS011;57519;51.494;-2.626;2022-07-06T03:22:12;230.80;;;137.48;;
70153;SDS011;57519;51.494;-2.626;2022-07-06T03:24:37;229.83;;;136.83;;
70153;SDS011;57519;51.494;-2.626;2022-07-06T03:27:03;235.23;;;138.60;;
70153;SDS011;57519;51.494;-2.626;2022-07-06T03:29:28;234.90;;;137.57;;
70153;SDS011;57519;51.494;-2.626;2022-07-06T03:31:54;233.20;;;138.77;;
70153;SDS011;57519;51.494;-2.626;2022-07-06T03:34:19;237.10;;;139.90;;
70153;SDS011;57519;51.494;-2.626;2022-07-06T03:36:45;236.33;;;139.23;;
70153;SDS011;57519;51.494;-2.626;2022-07-06T03:39:10;231.10;;;137.50;;
70153;SDS011;57519;51.494;-2.626;2022-07-06T03:41:35;232.82;;;138.30;;
70153;SDS011;57519;51.494;-2.626;2022-07-06T03:44:01;232.57;;;138.00;;
70153;SDS011;57519;51.494;-2.626;2022-07-06T03:46:27;229.67;;;136.13;;
70153;SDS011;57519;51.494;-2.626;2022-07-06T03:48:53;227.40;;;136.18;;
70153;SDS011;57519;51.494;-2.626;2022-07-06T03:51:18;234.13;;;137.40;;
70153;SDS011;57519;51.494;-2.626;2022-07-06T03:53:44;228.40;;;136.53;;
70153;SDS011;57519;51.494;-2.626;2022-07-06T03:56:09;230.47;;;137.50;;
70153;SDS011;57519;51.494;-2.626;2022-07-06T03:58:53;232.57;;;138.15;;
70153;SDS011;57519;51.494;-2.626;2022-07-06T04:01:20;235.52;;;138.48;;
70153;SDS011;57519;51.494;-2.626;2022-07-06T04:03:45;229.40;;;135.93;;
70153;SDS011;57519;51.494;-2.626;2022-07-06T04:06:11;230.18;;;135.93;;
70153;SDS011;57519;51.494;-2.626;2022-07-06T04:08:36;232.20;;;137.73;;
70153;SDS011;57519;51.494;-2.626;2022-07-06T04:11:02;232.57;;;137.27;;
70153;SDS011;57519;51.494;-2.626;2022-07-06T04:13:28;238.40;;;140.25;;
70153;SDS011;57519;51.494;-2.626;2022-07-06T04:15:53;238.37;;;140.47;;
70153;SDS011;57519;51.494;-2.626;2022-07-06T04:18:19;233.60;;;138.77;;
70153;SDS011;57519;51.494;-2.626;2022-07-06T04:20:44;233.00;;;138.82;;
70153;SDS011;57519;51.494;-2.626;2022-07-06T04:23:09;234.37;;;138.57;;
70153;SDS011;57519;51.494;-2.626;2022-07-06T04:25:35;231.87;;;138.03;;
70153;SDS011;57519;51.494;-2.626;2022-07-06T04:28:01;234.52;;;138.02;;
70153;SDS011;57519;51.494;-2.626;2022-07-06T04:30:26;230.30;;;137.13;;
70153;SDS011;57519;51.494;-2.626;2022-07-06T04:32:52;228.70;;;136.63;;
70153;SDS011;57519;51.494;-2.626;2022-07-06T04:35:17;231.55;;;137.32;;
70153;SDS011;57519;51.494;-2.626;2022-07-06T04:37:43;233.03;;;137.30;;
70153;SDS011;57519;51.494;-2.626;2022-07-06T04:40:10;230.63;;;136.68;;
70153;SDS011;57519;51.494;-2.626;2022-07-06T04:42:36;232.20;;;136.80;;
70153;SDS011;57519;51.494;-2.626;2022-07-06T04:45:02;229.95;;;136.45;;
70153;SDS011;57519;51.494;-2.626;2022-07-06T04:47:28;233.32;;;136.15;;
70153;SDS011;57519;51.494;-2.626;2022-07-06T04:49:53;231.20;;;136.70;;
70153;SDS011;57519;51.494;-2.626;2022-07-06T04:52:19;231.13;;;136.27;;
70153;SDS011;57519;51.494;-2.626;2022-07-06T04:54:44;233.45;;;136.32;;
70153;SDS011;57519;51.494;-2.626;2022-07-06T04:57:10;229.37;;;135.10;;
70153;SDS011;57519;51.494;-2.626;2022-07-06T04:59:35;228.53;;;135.40;;
70153;SDS011;57519;51.494;-2.626;2022-07-06T05:02:01;222.67;;;132.67;;
70153;SDS011;57519;51.494;-2.626;2022-07-06T05:04:26;226.27;;;133.80;;
70153;SDS011;57519;51.494;-2.626;2022-07-06T05:06:51;227.07;;;133.70;;
70153;SDS011;57519;51.494;-2.626;2022-07-06T05:09:17;227.03;;;133.67;;
70153;SDS011;57519;51.494;-2.626;2022-07-06T05:11:42;224.23;;;133.07;;
70153;SDS011;57519;51.494;-2.626;2022-07-06T05:14:09;224.07;;;132.40;;
70153;SDS011;57519;51.494;-2.626;2022-07-06T05:16:35;222.23;;;132.40;;
70153;SDS011;57519;51.494;-2.626;2022-07-06T05:19:00;221.77;;;131.77;;
70153;SDS011;57519;51.494;-2.626;2022-07-06T05:21:26;223.83;;;131.17;;
70153;SDS011;57519;51.494;-2.626;2022-07-06T05:23:51;223.20;;;131.20;;
70153;SDS011;57519;51.494;-2.626;2022-07-06T05:26:17;224.03;;;131.17;;
70153;SDS011;57519;51.494;-2.626;2022-07-06T05:28:42;220.20;;;130.63;;
70153;SDS011;57519;51.494;-2.626;2022-07-06T05:31:08;218.97;;;130.03;;
70153;SDS011;57519;51.494;-2.626;2022-07-06T05:33:33;223.27;;;129.52;;
70153;SDS011;57519;51.494;-2.626;2022-07-06T05:35:59;217.53;;;129.63;;
70153;SDS011;57519;51.494;-2.626;2022-07-06T05:38:24;215.63;;;128.50;;
70153;SDS011;57519;51.494;-2.626;2022-07-06T05:40:50;215.45;;;128.35;;
70153;SDS011;57519;51.494;-2.626;2022-07-06T05:43:16;214.13;;;127.43;;
70153;SDS011;57519;51.494;-2.626;2022-07-06T05:45:42;214.88;;;127.45;;
70153;SDS011;57519;51.494;-2.626;2022-07-06T05:48:07;215.83;;;127.67;;
70153;SDS011;57519;51.494;-2.626;2022-07-06T05:51:02;208.90;;;125.57;;
70153;SDS011;57519;51.494;-2.626;2022-07-06T05:53:27;208.40;;;124.07;;
70153;SDS011;57519;51.494;-2.626;2022-07-06T05:55:53;204.90;;;123.60;;
70153;SDS011;57519;51.494;-2.626;2022-07-06T05:58:18;208.30;;;124.47;;
70153;SDS011;57519;51.494;-2.626;2022-07-06T06:00:44;202.63;;;122.93;;
70153;SDS011;57519;51.494;-2.626;2022-07-06T06:03:09;200.35;;;122.20;;
70153;SDS011;57519;51.494;-2.626;2022-07-06T06:05:35;208.33;;;124.70;;
70153;SDS011;57519;51.494;-2.626;2022-07-06T06:08:00;203.20;;;121.90;;
70153;SDS011;57519;51.494;-2.626;2022-07-06T06:10:26;198.40;;;121.38;;
70153;SDS011;57519;51.494;-2.626;2022-07-06T06:12:52;202.10;;;122.33;;
70153;SDS011;57519;51.494;-2.626;2022-07-06T06:15:18;203.20;;;122.15;;
70153;SDS011;57519;51.494;-2.626;2022-07-06T06:17:43;204.80;;;121.83;;
70153;SDS011;57519;51.494;-2.626;2022-07-06T06:20:10;201.90;;;122.80;;
70153;SDS011;57519;51.494;-2.626;2022-07-06T06:25:30;203.48;;;122.03;;
70153;SDS011;57519;51.494;-2.626;2022-07-06T06:28:05;204.55;;;122.32;;
70153;SDS011;57519;51.494;-2.626;2022-07-06T06:30:34;199.55;;;121.32;;
70153;SDS011;57519;51.494;-2.626;2022-07-06T06:33:19;196.25;;;121.03;;
70153;SDS011;57519;51.494;-2.626;2022-07-06T06:35:45;203.87;;;120.67;;
70153;SDS011;57519;51.494;-2.626;2022-07-06T06:38:15;202.73;;;120.93;;
70153;SDS011;57519;51.494;-2.626;2022-07-06T06:40:41;195.30;;;119.88;;
70153;SDS011;57519;51.494;-2.626;2022-07-06T06:43:07;190.03;;;116.87;;
70153;SDS011;57519;51.494;-2.626;2022-07-06T06:45:33;197.70;;;118.05;;
70153;SDS011;57519;51.494;-2.626;2022-07-06T06:47:58;192.63;;;117.57;;
70153;SDS011;57519;51.494;-2.626;2022-07-06T06:50:23;191.88;;;118.28;;
70153;SDS011;57519;51.494;-2.626;2022-07-06T06:52:50;190.63;;;117.97;;
70153;SDS011;57519;51.494;-2.626;2022-07-06T06:55:15;188.48;;;116.45;;
70153;SDS011;57519;51.494;-2.626;2022-07-06T06:57:41;193.18;;;117.75;;
70153;SDS011;57519;51.494;-2.626;2022-07-06T07:00:07;192.53;;;118.53;;
70153;SDS011;57519;51.494;-2.626;2022-07-06T07:02:33;186.98;;;116.53;;
70153;SDS011;57519;51.494;-2.626;2022-07-06T07:04:58;191.93;;;117.60;;
70153;SDS011;57519;51.494;-2.626;2022-07-06T07:07:24;189.47;;;116.67;;
70153;SDS011;57519;51.494;-2.626;2022-07-06T07:09:50;188.32;;;116.90;;
70153;SDS011;57519;51.494;-2.626;2022-07-06T07:12:15;189.03;;;116.53;;
70153;SDS011;57519;51.494;-2.626;2022-07-06T07:14:42;184.95;;;114.55;;
70153;SDS011;57519;51.494;-2.626;2022-07-06T07:17:08;184.95;;;114.57;;
70153;SDS011;57519;51.494;-2.626;2022-07-06T07:19:33;182.77;;;113.90;;
70153;SDS011;57519;51.494;-2.626;2022-07-06T07:21:59;179.53;;;113.50;;
70153;SDS011;57519;51.494;-2.626;2022-07-06T07:24:24;180.80;;;114.03;;
70153;SDS011;57519;51.494;-2.626;2022-07-06T07:26:50;180.75;;;114.25;;
70153;SDS011;57519;51.494;-2.626;2022-07-06T07:29:15;181.33;;;114.63;;
70153;SDS011;57519;51.494;-2.626;2022-07-06T07:31:41;181.33;;;113.83;;
70153;SDS011;57519;51.494;-2.626;2022-07-06T07:34:06;182.77;;;114.93;;
70153;SDS011;57519;51.494;-2.626;2022-07-06T07:36:32;183.63;;;114.73;;
70153;SDS011;57519;51.494;-2.626;2022-07-06T07:38:57;182.27;;;114.83;;
70153;SDS011;57519;51.494;-2.626;2022-07-06T07:41:23;186.87;;;115.63;;
70153;SDS011;57519;51.494;-2.626;2022-07-06T07:43:48;182.43;;;114.38;;
70153;SDS011;57519;51.494;-2.626;2022-07-06T07:46:14;185.13;;;115.13;;
70153;SDS011;57519;51.494;-2.626;2022-07-06T07:48:39;174.10;;;110.70;;
70153;SDS011;57519;51.494;-2.626;2022-07-06T07:51:04;176.33;;;112.40;;
70153;SDS011;57519;51.494;-2.626;2022-07-06T07:53:30;172.40;;;110.32;;
70153;SDS011;57519;51.494;-2.626;2022-07-06T07:55:55;172.83;;;111.10;;
70153;SDS011;57519;51.494;-2.626;2022-07-06T07:58:21;175.73;;;110.37;;
70153;SDS011;57519;51.494;-2.626;2022-07-06T08:00:46;171.03;;;110.63;;
70153;SDS011;57519;51.494;-2.626;2022-07-06T08:03:12;167.70;;;109.07;;
70153;SDS011;57519;51.494;-2.626;2022-07-06T08:05:38;168.07;;;109.03;;
70153;SDS011;57519;51.494;-2.626;2022-07-06T08:08:03;163.77;;;107.03;;
70153;SDS011;57519;51.494;-2.626;2022-07-06T08:10:30;161.20;;;105.85;;
70153;SDS011;57519;51.494;-2.626;2022-07-06T08:12:55;162.27;;;106.30;;
70153;SDS011;57519;51.494;-2.626;2022-07-06T08:15:21;163.60;;;106.30;;
70153;SDS011;57519;51.494;-2.626;2022-07-06T08:17:46;159.10;;;105.63;;
70153;SDS011;57519;51.494;-2.626;2022-07-06T08:20:12;160.27;;;105.20;;
70153;SDS011;57519;51.494;-2.626;2022-07-06T08:22:37;157.20;;;104.03;;
70153;SDS011;57519;51.494;-2.626;2022-07-06T08:25:03;158.80;;;105.30;;
70153;SDS011;57519;51.494;-2.626;2022-07-06T08:27:29;162.57;;;105.93;;
70153;SDS011;57519;51.494;-2.626;2022-07-06T08:29:55;155.95;;;104.15;;
70153;SDS011;57519;51.494;-2.626;2022-07-06T08:32:20;162.07;;;107.10;;
70153;SDS011;57519;51.494;-2.626;2022-07-06T08:34:46;164.67;;;107.33;;
70153;SDS011;57519;51.494;-2.626;2022-07-06T08:37:12;163.40;;;106.88;;
70153;SDS011;57519;51.494;-2.626;2022-07-06T08:39:37;167.33;;;108.60;;
70153;SDS011;57519;51.494;-2.626;2022-07-06T08:42:03;160.57;;;106.27;;
70153;SDS011;57519;51.494;-2.626;2022-07-06T08:44:29;158.52;;;105.72;;
70153;SDS011;57519;51.494;-2.626;2022-07-06T08:46:55;160.88;;;105.95;;
70153;SDS011;57519;51.494;-2.626;2022-07-06T08:49:23;158.20;;;104.77;;
70153;SDS011;57519;51.494;-2.626;2022-07-06T08:51:51;158.18;;;105.55;;
70153;SDS011;57519;51.494;-2.626;2022-07-06T08:54:17;157.27;;;104.47;;
70153;SDS011;57519;51.494;-2.626;2022-07-06T08:56:44;155.75;;;104.07;;
70153;SDS011;57519;51.494;-2.626;2022-07-06T08:59:10;155.03;;;103.83;;
70153;SDS011;57519;51.494;-2.626;2022-07-06T09:01:38;160.00;;;104.63;;
70153;SDS011;57519;51.494;-2.626;2022-07-06T09:04:05;158.15;;;105.13;;
70153;SDS011;57519;51.494;-2.626;2022-07-06T09:06:32;155.57;;;104.35;;
70153;SDS011;57519;51.494;-2.626;2022-07-06T09:08:59;159.20;;;105.78;;
70153;SDS011;57519;51.494;-2.626;2022-07-06T09:11:29;162.57;;;106.03;;
70153;SDS011;57519;51.494;-2.626;2022-07-06T09:13:55;160.18;;;105.35;;
70153;SDS011;57519;51.494;-2.626;2022-07-06T09:16:25;160.00;;;105.73;;
70153;SDS011;57519;51.494;-2.626;2022-07-06T09:18:53;158.90;;;105.43;;
70153;SDS011;57519;51.494;-2.626;2022-07-06T09:21:22;155.97;;;103.47;;
70153;SDS011;57519;51.494;-2.626;2022-07-06T09:23:53;151.82;;;101.93;;
70153;SDS011;57519;51.494;-2.626;2022-07-06T09:26:19;152.02;;;102.18;;
70153;SDS011;57519;51.494;-2.626;2022-07-06T09:28:45;143.63;;;99.97;;
70153;SDS011;57519;51.494;-2.626;2022-07-06T09:31:11;144.60;;;99.55;;
70153;SDS011;57519;51.494;-2.626;2022-07-06T09:33:36;153.83;;;102.70;;
70153;SDS011;57519;51.494;-2.626;2022-07-06T09:36:02;149.65;;;101.85;;
70153;SDS011;57519;51.494;-2.626;2022-07-06T09:38:30;149.27;;;101.53;;
70153;SDS011;57519;51.494;-2.626;2022-07-06T09:40:56;147.57;;;100.23;;
70153;SDS011;57519;51.494;-2.626;2022-07-06T09:43:22;156.45;;;103.50;;
70153;SDS011;57519;51.494;-2.626;2022-07-06T09:45:49;158.73;;;104.47;;
70153;SDS011;57519;51.494;-2.626;2022-07-06T09:48:17;156.90;;;104.55;;
70153;SDS011;57519;51.494;-2.626;2022-07-06T09:50:56;155.00;;;102.18;;
70153;SDS011;57519;51.494;-2.626;2022-07-06T09:53:28;157.13;;;104.05;;
70153;SDS011;57519;51.494;-2.626;2022-07-06T09:55:54;153.73;;;103.37;;
70153;SDS011;57519;51.494;-2.626;2022-07-06T09:58:23;158.18;;;104.93;;
70153;SDS011;57519;51.494;-2.626;2022-07-06T10:00:49;154.40;;;103.35;;
70153;SDS011;57519;51.494;-2.626;2022-07-06T10:03:16;153.00;;;103.30;;
70153;SDS011;57519;51.494;-2.626;2022-07-06T10:05:46;150.88;;;101.22;;
70153;SDS011;57519;51.494;-2.626;2022-07-06T10:08:13;148.32;;;100.88;;
70153;SDS011;57519;51.494;-2.626;2022-07-06T10:10:39;143.88;;;98.97;;
70153;SDS011;57519;51.494;-2.626;2022-07-06T10:13:06;154.18;;;103.47;;
70153;SDS011;57519;51.494;-2.626;2022-07-06T10:15:33;162.07;;;105.30;;
70153;SDS011;57519;51.494;-2.626;2022-07-06T10:18:00;157.20;;;104.88;;
70153;SDS011;57519;51.494;-2.626;2022-07-06T10:20:29;151.77;;;102.22;;
70153;SDS011;57519;51.494;-2.626;2022-07-06T10:22:57;150.73;;;102.38;;
70153;SDS011;57519;51.494;-2.626;2022-07-06T10:25:24;153.52;;;102.20;;
70153;SDS011;57519;51.494;-2.626;2022-07-06T10:27:51;154.30;;;102.70;;
70153;SDS011;57519;51.494;-2.626;2022-07-06T10:30:17;154.30;;;103.15;;
70153;SDS011;57519;51.494;-2.626;2022-07-06T10:32:43;153.80;;;103.03;;
70153;SDS011;57519;51.494;-2.626;2022-07-06T10:35:10;154.30;;;103.97;;
70153;SDS011;57519;51.494;-2.626;2022-07-06T10:37:37;153.82;;;102.22;;
70153;SDS011;57519;51.494;-2.626;2022-07-06T10:40:03;152.23;;;102.80;;
70153;SDS011;57519;51.494;-2.626;2022-07-06T10:42:48;153.80;;;103.83;;
70153;SDS011;57519;51.494;-2.626;2022-07-06T10:45:21;150.95;;;102.40;;
70153;SDS011;57519;51.494;-2.626;2022-07-06T10:50:36;149.87;;;101.37;;
70153;SDS011;57519;51.494;-2.626;2022-07-06T10:53:24;150.32;;;101.50;;
70153;SDS011;57519;51.494;-2.626;2022-07-06T10:55:51;150.52;;;102.00;;
70153;SDS011;57519;51.494;-2.626;2022-07-06T10:58:34;150.55;;;101.68;;
70153;SDS011;57519;51.494;-2.626;2022-07-06T11:01:12;155.07;;;103.47;;
70153;SDS011;57519;51.494;-2.626;2022-07-06T11:06:16;150.05;;;101.00;;
70153;SDS011;57519;51.494;-2.626;2022-07-06T11:11:38;149.32;;;101.30;;
70153;SDS011;57519;51.494;-2.626;2022-07-06T11:14:07;148.63;;;101.23;;
70153;SDS011;57519;51.494;-2.626;2022-07-06T11:16:33;141.10;;;97.82;;
70153;SDS011;57519;51.494;-2.626;2022-07-06T11:23:58;136.68;;;96.22;;
70153;SDS011;57519;51.494;-2.626;2022-07-06T11:26:23;137.57;;;95.90;;
70153;SDS011;57519;51.494;-2.626;2022-07-06T11:28:49;138.68;;;96.43;;
70153;SDS011;57519;51.494;-2.626;2022-07-06T11:31:17;144.30;;;99.27;;
70153;SDS011;57519;51.494;-2.626;2022-07-06T11:33:46;138.82;;;96.63;;
70153;SDS011;57519;51.494;-2.626;2022-07-06T11:36:12;141.77;;;98.05;;
70153;SDS011;57519;51.494;-2.626;2022-07-06T11:38:38;141.43;;;97.78;;
70153;SDS011;57519;51.494;-2.626;2022-07-06T11:41:03;145.27;;;99.03;;
70153;SDS011;57519;51.494;-2.626;2022-07-06T11:43:29;144.90;;;99.23;;
70153;SDS011;57519;51.494;-2.626;2022-07-06T11:45:55;141.25;;;98.00;;
70153;SDS011;57519;51.494;-2.626;2022-07-06T11:48:20;143.20;;;98.97;;
70153;SDS011;57519;51.494;-2.626;2022-07-06T11:51:03;138.80;;;96.90;;
70153;SDS011;57519;51.494;-2.626;2022-07-06T11:53:29;149.13;;;100.35;;
70153;SDS011;57519;51.494;-2.626;2022-07-06T11:55:54;142.13;;;98.55;;
70153;SDS011;57519;51.494;-2.626;2022-07-06T11:58:21;141.13;;;97.93;;
70153;SDS011;57519;51.494;-2.626;2022-07-06T12:01:04;136.50;;;96.55;;
70153;SDS011;57519;51.494;-2.626;2022-07-06T12:03:35;142.02;;;98.15;;
70153;SDS011;57519;51.494;-2.626;2022-07-06T12:06:02;133.90;;;94.83;;
70153;SDS011;57519;51.494;-2.626;2022-07-06T12:08:29;142.13;;;97.77;;
70153;SDS011;57519;51.494;-2.626;2022-07-06T12:10:55;138.75;;;97.63;;
70153;SDS011;57519;51.494;-2.626;2022-07-06T12:13:21;133.98;;;95.13;;
70153;SDS011;57519;51.494;-2.626;2022-07-06T12:15:47;135.63;;;95.47;;
70153;SDS011;57519;51.494;-2.626;2022-07-06T12:18:13;134.90;;;96.70;;
70153;SDS011;57519;51.494;-2.626;2022-07-06T12:20:38;134.77;;;95.67;;
70153;SDS011;57519;51.494;-2.626;2022-07-06T12:23:04;139.07;;;95.60;;
70153;SDS011;57519;51.494;-2.626;2022-07-06T12:25:34;132.50;;;94.25;;
70153;SDS011;57519;51.494;-2.626;2022-07-06T12:28:01;129.10;;;92.45;;
70153;SDS011;57519;51.494;-2.626;2022-07-06T12:30:27;125.43;;;92.10;;
70153;SDS011;57519;51.494;-2.626;2022-07-06T12:33:25;128.93;;;92.37;;
70153;SDS011;57519;51.494;-2.626;2022-07-06T12:35:44;127.43;;;92.22;;
70153;SDS011;57519;51.494;-2.626;2022-07-06T12:38:10;125.00;;;90.57;;
70153;SDS011;57519;51.494;-2.626;2022-07-06T12:40:36;122.28;;;90.38;;
70153;SDS011;57519;51.494;-2.626;2022-07-06T12:43:03;121.25;;;89.25;;
70153;SDS011;57519;51.494;-2.626;2022-07-06T12:45:29;127.13;;;91.43;;
70153;SDS011;57519;51.494;-2.626;2022-07-06T12:48:02;127.00;;;91.82;;
70153;SDS011;57519;51.494;-2.626;2022-07-06T12:50:37;125.15;;;91.28;;
70153;SDS011;57519;51.494;-2.626;2022-07-06T12:53:04;130.20;;;94.13;;
70153;SDS011;57519;51.494;-2.626;2022-07-06T12:55:31;130.95;;;93.07;;
70153;SDS011;57519;51.494;-2.626;2022-07-06T12:57:57;126.77;;;92.67;;
70153;SDS011;57519;51.494;-2.626;2022-07-06T13:00:24;130.75;;;94.07;;
70153;SDS011;57519;51.494;-2.626;2022-07-06T13:02:50;127.47;;;92.97;;
70153;SDS011;57519;51.494;-2.626;2022-07-06T13:05:25;127.07;;;92.50;;
70153;SDS011;57519;51.494;-2.626;2022-07-06T13:07:56;123.32;;;90.35;;
70153;SDS011;57519;51.494;-2.626;2022-07-06T13:10:23;119.60;;;89.10;;
70153;SDS011;57519;51.494;-2.626;2022-07-06T13:12:49;123.15;;;90.15;;
70153;SDS011;57519;51.494;-2.626;2022-07-06T13:15:15;127.38;;;92.82;;
70153;SDS011;57519;51.494;-2.626;2022-07-06T13:17:41;130.27;;;93.13;;
70153;SDS011;57519;51.494;-2.626;2022-07-06T13:20:08;126.60;;;91.35;;
70153;SDS011;57519;51.494;-2.626;2022-07-06T13:22:35;126.85;;;92.15;;
70153;SDS011;57519;51.494;-2.626;2022-07-06T13:25:01;129.37;;;93.70;;
70153;SDS011;57519;51.494;-2.626;2022-07-06T13:27:27;134.93;;;93.85;;
70153;SDS011;57519;51.494;-2.626;2022-07-06T13:29:52;126.00;;;92.00;;
70153;SDS011;57519;51.494;-2.626;2022-07-06T13:32:19;126.53;;;91.63;;
70153;SDS011;57519;51.494;-2.626;2022-07-06T13:34:44;125.90;;;90.87;;
70153;SDS011;57519;51.494;-2.626;2022-07-06T13:37:10;131.45;;;92.95;;
70153;SDS011;57519;51.494;-2.626;2022-07-06T13:39:35;134.40;;;95.23;;
70153;SDS011;57519;51.494;-2.626;2022-07-06T13:42:01;131.70;;;94.13;;
70153;SDS011;57519;51.494;-2.626;2022-07-06T13:44:26;131.02;;;94.20;;
70153;SDS011;57519;51.494;-2.626;2022-07-06T13:46:52;137.37;;;96.03;;
70153;SDS011;57519;51.494;-2.626;2022-07-06T13:49:17;129.83;;;93.83;;
70153;SDS011;57519;51.494;-2.626;2022-07-06T13:51:43;135.60;;;94.03;;
70153;SDS011;57519;51.494;-2.626;2022-07-06T13:54:09;137.63;;;95.93;;
70153;SDS011;57519;51.494;-2.626;2022-07-06T13:56:36;128.55;;;92.88;;
70153;SDS011;57519;51.494;-2.626;2022-07-06T13:59:02;123.03;;;90.32;;
70153;SDS011;57519;51.494;-2.626;2022-07-06T14:01:28;125.10;;;91.23;;